Time;durP1;ratioP1;P1;durP2;ratioP2;P2;SDS_P1;SDS_P2;PMS_P1;PMS_P2;Temp;Humidity;BMP_temperature;BMP_pressure;BME280_temperature;BME280_humidity;BME280_pressure;Samples;Min_cycle;Max_cycle;Signal;HPM_P1;HPM_P2
2021/11/06 00:00:31;;;;;;;14.20;10.60;;;;;;;7.47;77.48;100552.88;230216;1191;139351;-69
2021/11/06 00:05:47;;;;;;;15.30;10.60;;;;;;;7.52;77.39;100558.79;228728;1193;141474;-69
2021/11/06 00:10:51;;;;;;;13.00;10.40;;;;;;;7.49;77.50;100556.32;229335;1192;139438;-72
2021/11/06 00:15:56;;;;;;;13.10;10.00;;;;;;;7.43;77.45;100549.29;228902;1191;142158;-76
2021/11/06 00:21:02;;;;;;;12.60;10.50;;;;;;;7.42;77.88;100542.55;229190;1191;140357;-76
2021/11/06 00:26:05;;;;;;;11.50;9.40;;;;;;;7.36;77.82;100545.00;229161;1191;139460;-75
2021/11/06 00:31:08;;;;;;;13.50;10.60;;;;;;;7.33;77.65;100547.43;228499;1192;139742;-71
2021/11/06 00:36:11;;;;;;;14.00;11.10;;;;;;;7.34;77.58;100550.87;228827;1193;160073;-71
2021/11/06 00:41:15;;;;;;;14.90;11.00;;;;;;;7.34;77.80;100554.91;229448;1191;150981;-74
2021/11/06 00:46:20;;;;;;;16.40;12.20;;;;;;;7.33;77.91;100562.73;228343;1193;139508;-74
2021/11/06 00:51:25;;;;;;;17.60;10.30;;;;;;;7.34;77.85;100567.27;228669;1192;140560;-73
2021/11/06 00:56:32;;;;;;;12.30;10.60;;;;;;;7.35;77.95;100559.45;229758;1192;140236;-74
2021/11/06 01:01:37;;;;;;;9.80;8.80;;;;;;;7.33;78.27;100559.38;228917;1192;139709;-71
2021/11/06 01:06:41;;;;;;;13.50;10.60;;;;;;;7.32;78.03;100566.20;229671;1192;138930;-74
2021/11/06 01:11:53;;;;;;;11.60;10.10;;;;;;;7.38;77.95;100567.13;230001;1191;141738;-77
2021/11/06 01:16:57;;;;;;;11.60;9.90;;;;;;;7.41;77.77;100566.41;230172;1192;140042;-74
2021/11/06 01:22:00;;;;;;;13.10;10.50;;;;;;;7.41;78.16;100566.83;230121;1192;141208;-73
2021/11/06 01:27:04;;;;;;;11.60;8.80;;;;;;;7.45;78.17;100572.41;230107;1192;141320;-75
2021/11/06 01:32:07;;;;;;;10.90;9.80;;;;;;;7.47;77.79;100571.31;230302;1191;139379;-72
2021/11/06 01:37:10;;;;;;;11.00;8.50;;;;;;;7.48;77.92;100579.98;229911;1191;139710;-79
2021/11/06 01:42:13;;;;;;;13.10;8.50;;;;;;;7.46;77.84;100582.37;230886;1192;139359;-79
2021/11/06 01:47:15;;;;;;;9.80;8.20;;;;;;;7.50;77.63;100587.17;230812;1191;141058;-79
2021/11/06 01:52:19;;;;;;;10.90;8.30;;;;;;;7.48;77.81;100597.33;228976;1191;140592;-73
2021/11/06 01:57:29;;;;;;;10.50;8.10;;;;;;;7.48;77.85;100599.98;229755;1191;141016;-70
2021/11/06 02:02:32;;;;;;;10.10;8.70;;;;;;;7.52;77.47;100598.82;230022;1191;140864;-72
2021/11/06 02:07:35;;;;;;;13.00;8.60;;;;;;;7.49;77.83;100602.67;230533;1191;141046;-76
2021/11/06 02:12:42;;;;;;;10.40;8.90;;;;;;;7.47;77.82;100601.69;230235;1192;139851;-73
2021/11/06 02:17:53;;;;;;;14.70;8.50;;;;;;;7.52;77.96;100603.60;229727;1191;140823;-72
2021/11/06 02:22:58;;;;;;;8.90;7.30;;;;;;;7.56;77.71;100600.33;228683;1192;140870;-71
2021/11/06 02:28:00;;;;;;;10.40;8.10;;;;;;;7.57;77.76;100597.56;228842;1192;139891;-73
2021/11/06 02:33:03;;;;;;;9.90;7.80;;;;;;;7.54;77.73;100595.66;229200;1191;140315;-73
2021/11/06 02:38:07;;;;;;;9.20;7.90;;;;;;;7.53;77.91;100599.81;229091;1191;139971;-76
2021/11/06 02:43:12;;;;;;;5.30;3.70;;;;;;;7.51;77.95;100604.77;229131;1192;142330;-76
2021/11/06 02:48:14;;;;;;;12.20;8.60;;;;;;;7.45;77.69;100601.09;229107;1191;139788;-76
2021/11/06 02:53:20;;;;;;;13.50;8.90;;;;;;;7.43;77.78;100596.18;228930;1191;141330;-76
2021/11/06 02:58:23;;;;;;;9.80;6.10;;;;;;;7.46;77.87;100600.94;228451;1192;140336;-80
2021/11/06 03:03:26;;;;;;;12.40;8.60;;;;;;;7.41;77.60;100609.02;230045;1192;140476;-81
2021/11/06 03:08:29;;;;;;;9.90;8.50;;;;;;;7.39;77.72;100603.08;229759;1191;140842;-79
2021/11/06 03:13:32;;;;;;;11.30;9.10;;;;;;;7.39;77.90;100598.84;228962;1192;140575;-70
2021/11/06 03:18:36;;;;;;;11.90;9.00;;;;;;;7.38;77.74;100607.20;229850;1192;139476;-75
2021/11/06 03:23:38;;;;;;;12.20;8.80;;;;;;;7.36;77.55;100607.83;229200;1191;140251;-78
2021/11/06 03:28:51;;;;;;;10.90;8.50;;;;;;;7.37;77.70;100611.64;229552;1193;141097;-76
2021/11/06 03:34:27;;;;;;;;;;;;;;;;;;;;;
2021/11/06 03:39:30;;;;;;;11.50;8.80;;;;;;;7.38;77.98;100620.87;231127;1192;140471;-81
2021/11/06 03:44:36;;;;;;;11.50;8.20;;;;;;;7.42;77.56;100620.01;230649;1191;139638;-78
2021/11/06 03:49:40;;;;;;;12.20;7.30;;;;;;;7.48;77.73;100623.00;230591;1191;142206;-79
2021/11/06 03:54:43;;;;;;;12.50;8.10;;;;;;;7.44;77.76;100627.86;230310;1191;139759;-77
2021/11/06 03:59:46;;;;;;;14.90;8.50;;;;;;;7.45;77.91;100625.42;230055;1192;139709;-69
2021/11/06 04:04:50;;;;;;;13.20;7.40;;;;;;;7.44;77.13;100631.65;230040;1192;140195;-83
2021/11/06 04:09:56;;;;;;;12.70;9.60;;;;;;;7.37;77.22;100638.66;229408;1192;140565;-75
2021/11/06 04:15:10;;;;;;;11.10;8.20;;;;;;;7.33;77.31;100630.72;228623;1192;152860;-73
2021/11/06 04:20:34;;;;;;;10.40;8.00;;;;;;;7.32;77.29;100624.95;229866;1192;141538;-77
2021/11/06 04:25:58;;;;;;;12.70;8.30;;;;;;;7.24;77.47;100624.44;229769;1192;142697;-72
2021/11/06 04:31:01;;;;;;;10.10;7.90;;;;;;;7.12;77.07;100617.40;228891;1192;139985;-79
2021/11/06 04:36:07;;;;;;;10.70;8.50;;;;;;;7.03;77.07;100620.74;229791;1192;140546;-73
2021/11/06 04:41:10;;;;;;;11.40;8.80;;;;;;;6.98;77.24;100630.09;229220;1192;140617;-71
2021/11/06 04:46:13;;;;;;;12.40;8.20;;;;;;;6.89;77.43;100633.50;229501;1192;142232;-76
2021/11/06 04:51:16;;;;;;;10.20;8.60;;;;;;;6.85;77.46;100632.80;229260;1192;140457;-76
2021/11/06 04:56:18;;;;;;;6.50;4.90;;;;;;;6.84;77.72;100633.27;228809;1192;140589;-76
2021/11/06 05:01:25;;;;;;;10.90;8.60;;;;;;;6.77;77.29;100629.86;228790;1192;140637;-77
2021/11/06 05:06:31;;;;;;;13.00;9.20;;;;;;;6.74;77.59;100625.83;229975;1192;140878;-74
2021/11/06 05:11:37;;;;;;;13.30;8.10;;;;;;;6.76;77.81;100631.56;228043;1193;139487;-75
2021/11/06 05:17:14;;;;;;;;;;;;;;;;;;;;;
2021/11/06 05:22:26;;;;;;;12.40;8.30;;;;;;;6.77;78.07;100639.03;230329;1184;140136;-75
2021/11/06 05:27:28;;;;;;;9.40;7.40;;;;;;;6.80;77.68;100640.08;230224;1191;139133;-75
2021/11/06 05:32:33;;;;;;;12.40;7.60;;;;;;;6.85;77.44;100640.46;229982;1192;139954;-75
2021/11/06 05:37:37;;;;;;;9.70;6.20;;;;;;;6.87;78.23;100646.20;229858;1192;139199;-78
2021/11/06 05:42:54;;;;;;;13.60;9.40;;;;;;;6.88;77.92;100653.63;230590;1191;139793;-78
2021/11/06 05:47:58;;;;;;;10.20;8.00;;;;;;;6.94;77.65;100656.30;229914;1192;140967;-77
2021/11/06 05:53:16;;;;;;;11.50;6.60;;;;;;;6.92;77.79;100665.14;230516;1192;139758;-80
2021/11/06 05:58:58;;;;;;;;;;;;;;;;;;;;;
2021/11/06 06:04:02;;;;;;;11.10;7.00;;;;;;;6.98;77.76;100679.60;230907;1191;140015;-76
2021/11/06 06:09:07;;;;;;;12.40;7.70;;;;;;;7.01;77.90;100686.84;230936;1192;139747;-74
2021/11/06 06:14:10;;;;;;;10.30;7.70;;;;;;;7.06;77.57;100684.95;230221;1192;140566;-75
2021/11/06 06:19:13;;;;;;;11.20;7.30;;;;;;;7.07;77.52;100685.21;229718;1191;140193;-74
2021/11/06 06:24:20;;;;;;;11.00;7.30;;;;;;;7.07;77.97;100685.02;230468;1193;140117;-70
2021/11/06 06:29:23;;;;;;;14.20;7.50;;;;;;;7.12;77.50;100690.40;229560;1193;139617;-70
2021/11/06 06:34:26;;;;;;;11.40;7.60;;;;;;;7.16;77.44;100691.84;229677;1192;140176;-69
2021/11/06 06:39:33;;;;;;;14.30;8.20;;;;;;;7.21;77.84;100697.08;228741;1192;141377;-70
2021/11/06 06:44:38;;;;;;;10.30;7.50;;;;;;;7.22;77.60;100695.95;227984;1193;140429;-70
2021/11/06 06:49:41;;;;;;;12.10;8.30;;;;;;;7.25;77.78;100701.92;228836;1192;139947;-70
2021/11/06 06:54:49;;;;;;;14.10;7.60;;;;;;;7.29;77.59;100694.71;228764;1191;162084;-69
2021/11/06 07:00:36;;;;;;;14.50;7.20;;;;;;;7.27;77.53;100700.64;228581;1193;141157;-70
2021/11/06 07:05:51;;;;;;;11.30;7.40;;;;;;;7.34;77.72;100704.98;230346;1191;140232;-73
2021/11/06 07:11:12;;;;;;;17.60;8.50;;;;;;;7.52;77.83;100711.41;229359;1192;140952;-73
2021/11/06 07:16:21;;;;;;;8.90;6.70;;;;;;;7.67;77.45;100720.38;229051;1192;141066;-69
2021/11/06 07:21:39;;;;;;;13.50;8.40;;;;;;;7.72;77.02;100723.27;229350;1193;140563;-74
2021/11/06 07:27:07;;;;;;;13.00;8.40;;;;;;;7.77;76.87;100718.73;229823;1191;140140;-74
2021/11/06 07:32:11;;;;;;;12.60;6.90;;;;;;;7.73;76.91;100724.17;228637;1191;139841;-71
2021/11/06 07:37:24;;;;;;;13.40;8.20;;;;;;;7.77;76.93;100729.15;229694;1193;140244;-73
2021/11/06 07:42:51;;;;;;;14.50;7.90;;;;;;;7.85;76.73;100722.56;228479;1192;141563;-73
2021/11/06 07:47:54;;;;;;;8.00;6.20;;;;;;;7.93;76.65;100724.55;230247;1192;139622;-73
2021/11/06 07:52:57;;;;;;;8.60;7.10;;;;;;;8.01;76.60;100720.27;230490;1193;139971;-70
2021/11/06 07:58:00;;;;;;;14.20;6.10;;;;;;;8.15;76.63;100719.14;231144;1192;141229;-72
2021/11/06 08:03:06;;;;;;;14.70;6.10;;;;;;;8.22;76.48;100721.36;230707;1192;139639;-77
2021/11/06 08:08:09;;;;;;;10.70;5.20;;;;;;;8.27;76.39;100722.14;230804;1192;139260;-75
2021/11/06 08:13:35;;;;;;;;;;;;;;;;;;;;;
2021/11/06 08:18:39;;;;;;;10.50;6.00;;;;;;;8.42;75.94;100727.09;230621;1192;140032;-72
2021/11/06 08:23:46;;;;;;;13.20;6.30;;;;;;;8.52;76.11;100733.69;230295;1192;139388;-74
2021/11/06 08:28:59;;;;;;;;;;;;;;;8.70;75.80;100738.14;230234;1192;139224;-75
2021/11/06 08:34:06;;;;;;;6.50;4.50;;;;;;;8.88;75.89;100739.06;230712;1177;125681;-78
2021/11/06 08:39:20;;;;;;;7.60;4.50;;;;;;;9.11;75.56;100749.38;228762;1192;139543;-76
2021/11/06 08:45:02;;;;;;;;;;;;;;;;;;;;;
2021/11/06 08:50:07;;;;;;;8.80;5.00;;;;;;;9.60;75.14;100758.27;229638;1193;140147;-76
2021/11/06 08:55:10;;;;;;;5.00;3.70;;;;;;;9.70;74.74;100760.30;228876;1192;139857;-77
2021/11/06 09:00:25;;;;;;;11.30;4.40;;;;;;;9.88;74.47;100762.42;228951;1192;140156;-77
2021/11/06 09:05:41;;;;;;;8.30;5.00;;;;;;;10.02;73.97;100765.78;229271;1191;139712;-80
2021/11/06 09:11:02;;;;;;;7.60;3.80;;;;;;;9.98;73.88;100757.55;228949;1192;159760;-77
2021/11/06 09:16:07;;;;;;;7.40;4.00;;;;;;;10.01;73.74;100759.27;229695;1191;139770;-82
2021/11/06 09:21:12;;;;;;;6.70;4.10;;;;;;;10.10;73.51;100763.39;229484;1190;140163;-76
2021/11/06 09:26:50;;;;;;;7.80;4.40;;;;;;;10.15;73.35;100763.75;229783;1192;139905;-79
2021/11/06 09:31:53;;;;;;;5.30;3.80;;;;;;;10.22;73.18;100765.02;229806;1191;141008;-72
2021/11/06 09:37:37;;;;;;;7.30;5.70;;;;;;;10.29;72.90;100761.77;229776;1192;140942;-74
2021/11/06 09:42:41;;;;;;;6.30;4.00;;;;;;;10.36;73.04;100770.79;230442;1192;141254;-77
2021/11/06 09:47:49;;;;;;;9.30;5.00;;;;;;;10.46;72.74;100763.48;230043;1192;140725;-78
2021/11/06 09:52:56;;;;;;;3.50;2.90;;;;;;;10.53;72.57;100761.55;230525;1191;140768;-77
2021/11/06 09:58:00;;;;;;;14.20;9.60;;;;;;;10.53;72.39;100766.71;231288;1192;139752;-80
2021/11/06 10:03:04;;;;;;;9.40;5.70;;;;;;;10.58;72.57;100762.35;230963;1191;140780;-81
2021/11/06 10:08:38;;;;;;;7.70;5.60;;;;;;;10.72;72.37;100757.45;230959;1192;140268;-75
2021/11/06 10:13:57;;;;;;;5.80;4.10;;;;;;;10.76;72.22;100756.00;230483;1193;139759;-77
2021/11/06 10:19:21;;;;;;;5.70;4.50;;;;;;;10.84;71.80;100750.85;231178;1191;141328;-78
2021/11/06 10:24:41;;;;;;;7.10;5.30;;;;;;;10.94;71.89;100753.12;230760;1192;139575;-79
2021/11/06 10:30:00;;;;;;;6.50;3.70;;;;;;;11.04;71.72;100744.85;229597;1192;139960;-77
2021/11/06 10:35:26;;;;;;;6.90;4.40;;;;;;;11.15;71.68;100745.98;229433;1192;140925;-71
2021/11/06 10:40:40;;;;;;;6.30;4.20;;;;;;;11.34;71.43;100733.34;229793;1192;139608;-75
2021/11/06 10:45:51;;;;;;;10.50;5.80;;;;;;;11.47;71.41;100726.36;228892;1192;141589;-80
2021/11/06 10:51:23;;;;;;;9.70;5.20;;;;;;;11.56;71.00;100721.34;228595;1192;139552;-77
2021/11/06 10:56:47;;;;;;;8.00;3.50;;;;;;;11.72;70.84;100717.63;228714;1193;140756;-72
2021/11/06 11:02:14;;;;;;;7.00;4.40;;;;;;;11.87;70.82;100714.62;229459;1191;139416;-77
2021/11/06 11:07:25;;;;;;;12.70;5.50;;;;;;;11.93;70.06;100709.41;228845;1192;139584;-78
2021/11/06 11:13:22;;;;;;;;;;;;;;;;;;;;;
2021/11/06 11:18:52;;;;;;;11.30;5.00;;;;;;;12.17;69.39;100711.12;228828;1192;140381;-72
2021/11/06 11:24:27;;;;;;;;;;;;;;;;;;;;;
2021/11/06 11:29:35;;;;;;;11.50;6.30;;;;;;;12.31;68.75;100711.48;230067;1192;141932;-75
2021/11/06 11:34:47;;;;;;;11.30;5.20;;;;;;;12.31;68.55;100710.26;228809;1192;141194;-71
2021/11/06 11:39:53;;;;;;;5.40;3.40;;;;;;;12.43;68.24;100704.83;230175;1192;140822;-74
2021/11/06 11:45:26;;;;;;;6.40;4.20;;;;;;;12.32;68.01;100705.84;229606;1192;139093;-76
2021/11/06 11:50:41;;;;;;;9.70;4.40;;;;;;;12.22;67.85;100709.92;230584;1192;139345;-72
2021/11/06 11:55:50;;;;;;;4.70;3.00;;;;;;;12.17;67.70;100708.94;230891;1192;140112;-74
2021/11/06 12:00:57;;;;;;;6.70;3.10;;;;;;;12.04;67.38;100706.22;230914;1191;139471;-76
2021/11/06 12:06:19;;;;;;;9.10;4.60;;;;;;;11.96;67.36;100697.79;230799;1191;140886;-75
2021/11/06 12:11:49;;;;;;;7.60;3.70;;;;;;;11.92;67.21;100701.90;231034;1192;139952;-82
2021/11/06 12:17:21;;;;;;;4.80;3.30;;;;;;;11.84;67.46;100701.08;230726;1191;139611;-73
2021/11/06 12:22:46;;;;;;;5.80;4.10;;;;;;;11.73;67.36;100704.48;229774;1192;139081;-77
2021/11/06 12:28:42;;;;;;;;;;;;;;;;;;;;;
2021/11/06 12:33:51;;;;;;;9.00;5.90;;;;;;;11.44;67.31;100707.15;229814;1192;139490;-79
2021/11/06 12:39:15;;;;;;;10.80;7.00;;;;;;;11.36;67.30;100706.13;230513;1191;139445;-79
2021/11/06 12:44:40;;;;;;;6.30;5.70;;;;;;;11.30;67.39;100701.88;230608;1192;139596;-77
2021/11/06 12:50:24;;;;;;;8.80;7.60;;;;;;;11.20;67.53;100709.83;228751;1192;139361;-76
2021/11/06 12:55:28;;;;;;;7.50;4.40;;;;;;;11.09;67.50;100706.85;228587;1192;139400;-77
2021/11/06 13:00:37;;;;;;;6.30;5.40;;;;;;;11.08;67.73;100706.85;228234;1192;140310;-76
2021/11/06 13:05:47;;;;;;;4.00;3.10;;;;;;;11.04;67.53;100714.67;228485;1192;142075;-78
2021/11/06 13:11:15;;;;;;;6.40;3.20;;;;;;;10.98;67.60;100713.81;229548;1191;139160;-81
2021/11/06 13:16:27;;;;;;;5.90;5.00;;;;;;;10.86;67.79;100716.92;229289;1191;139225;-79
2021/11/06 13:21:43;;;;;;;12.00;5.60;;;;;;;10.81;67.81;100717.75;229380;1191;139599;-83
2021/11/06 13:26:47;;;;;;;6.10;4.10;;;;;;;10.79;67.92;100718.73;228988;1192;139942;-80
2021/11/06 13:32:02;;;;;;;6.70;3.30;;;;;;;10.71;68.08;100718.12;229330;1192;140082;-73
2021/11/06 13:37:36;;;;;;;5.70;3.10;;;;;;;10.65;67.94;100714.84;230231;1192;139269;-74
2021/11/06 13:42:42;;;;;;;8.60;4.50;;;;;;;10.62;68.01;100714.11;229047;1192;140812;-76
2021/11/06 13:47:48;;;;;;;5.50;3.90;;;;;;;10.57;68.24;100711.70;229773;1191;139653;-76
2021/11/06 13:52:58;;;;;;;8.90;4.10;;;;;;;10.51;68.32;100713.77;229874;1191;140090;-81
2021/11/06 13:58:02;;;;;;;7.60;3.30;;;;;;;10.50;68.31;100715.45;228905;1192;138808;-81
2021/11/06 14:03:42;;;;;;;;;;;;;;;;;;;;;
2021/11/06 14:08:46;;;;;;;6.50;3.40;;;;;;;10.49;68.27;100706.77;231014;1192;139823;-75
2021/11/06 14:14:01;;;;;;;4.50;2.50;;;;;;;10.44;68.17;100702.30;230698;1192;139200;-75
2021/11/06 14:19:06;;;;;;;4.40;2.80;;;;;;;10.42;68.18;100706.15;231008;1191;139652;-76
2021/11/06 14:24:17;;;;;;;3.60;3.10;;;;;;;10.46;68.25;100702.01;230504;1191;139778;-79
2021/11/06 14:30:18;;;;;;;;;;;;;;;;;;;;;
2021/11/06 14:35:43;;;;;;;8.00;3.30;;;;;;;10.35;68.10;100696.56;230121;1192;141533;-73
2021/11/06 14:41:56;;;;;;;;;;;;;;;;;;;;;
2021/11/06 14:47:19;;;;;;;7.60;2.40;;;;;;;10.20;68.08;100692.57;228324;1195;140729;-70
2021/11/06 14:52:25;;;;;;;4.90;2.00;;;;;;;10.18;67.91;100695.39;228623;1192;140548;-71
2021/11/06 14:58:02;;;;;;;4.10;2.60;;;;;;;10.11;67.92;100698.42;229455;1192;236492;-71
2021/11/06 15:03:20;;;;;;;;;;;;;;;;;;;;;
2021/11/06 15:08:28;;;;;;;3.50;1.80;;;;;;;9.99;68.12;100691.16;229574;1191;139162;-80
2021/11/06 15:13:46;;;;;;;1.40;1.30;;;;;;;9.96;68.26;100690.05;229036;1191;140016;-75
2021/11/06 15:19:02;;;;;;;7.90;3.00;;;;;;;9.95;67.99;100682.40;229726;1191;139380;-75
2021/11/06 15:24:19;;;;;;;3.40;2.10;;;;;;;9.91;68.05;100682.77;229685;1192;163615;-84
2021/11/06 15:29:35;;;;;;;9.70;3.00;;;;;;;9.81;68.00;100680.52;228574;1192;141881;-80
2021/11/06 15:34:52;;;;;;;;;;;;;;;;;;;;;
2021/11/06 15:40:20;;;;;;;;;;;;;;;;;;;;;
2021/11/06 15:45:36;;;;;;;3.70;2.30;;;;;;;9.34;68.19;100678.45;230768;1191;139200;-78
2021/11/06 15:50:40;;;;;;;9.00;3.10;;;;;;;9.32;68.34;100683.20;230462;1191;139678;-75
2021/11/06 15:55:44;;;;;;;5.60;2.60;;;;;;;9.31;68.38;100679.27;230987;1192;139322;-75
2021/11/06 16:01:06;;;;;;;;;;;;;;;;;;;;;
2021/11/06 16:06:37;;;;;;;;;;;;;;;;;;;;;
2021/11/06 16:11:44;;;;;;;5.20;4.40;;;;;;;9.29;68.67;100683.64;230910;1192;140958;-82
2021/11/06 16:16:47;;;;;;;5.70;3.10;;;;;;;9.27;68.68;100682.77;229827;1192;141303;-75
2021/11/06 16:21:52;;;;;;;8.60;3.60;;;;;;;9.31;68.55;100686.84;230899;1192;140069;-75
2021/11/06 16:27:10;;;;;;;;;;;;;;;;;;;;;
2021/11/06 16:32:16;;;;;;;6.80;3.20;;;;;;;9.35;68.65;100688.15;229773;1192;142681;-75
2021/11/06 16:37:27;;;;;;;4.90;3.10;;;;;;;9.31;68.79;100683.89;229041;1191;139879;-75
2021/11/06 16:42:30;;;;;;;5.80;2.70;;;;;;;9.26;68.70;100676.95;230696;1191;139694;-75
2021/11/06 16:47:38;;;;;;;5.90;3.30;;;;;;;9.21;68.62;100675.48;229888;1191;139844;-70
2021/11/06 16:52:44;;;;;;;6.10;3.90;;;;;;;9.21;68.50;100674.52;228535;1192;140274;-73
2021/11/06 16:57:47;;;;;;;6.60;3.70;;;;;;;9.20;68.73;100667.98;228523;1192;139682;-70
2021/11/06 17:02:49;;;;;;;10.70;3.50;;;;;;;9.14;68.74;100663.33;229109;1192;140927;-82
2021/11/06 17:08:04;;;;;;;6.10;3.80;;;;;;;9.07;68.89;100659.84;229731;1192;140239;-72
2021/11/06 17:14:06;;;;;;;;;;;;;;;;;;;;;
2021/11/06 17:19:31;;;;;;;9.90;4.70;;;;;;;8.97;68.70;100647.09;228498;1192;140663;-81
2021/11/06 17:24:56;;;;;;;;;;;;;;;;;;;;;
2021/11/06 17:30:00;;;;;;;5.40;3.60;;;;;;;8.92;68.41;100644.78;229307;1192;140226;-78
2021/11/06 17:35:07;;;;;;;8.30;4.10;;;;;;;8.87;68.41;100646.50;229435;1192;138899;-78
2021/11/06 17:40:20;;;;;;;5.20;2.90;;;;;;;8.83;68.65;100639.27;228467;1191;140277;-77
2021/11/06 17:45:25;;;;;;;6.80;4.30;;;;;;;8.81;68.37;100637.17;228640;1192;139000;-80
2021/11/06 17:50:36;;;;;;;7.30;4.20;;;;;;;8.78;68.34;100637.53;230106;1191;139558;-72
2021/11/06 17:55:57;;;;;;;10.50;3.60;;;;;;;8.80;68.12;100637.46;229284;1192;140119;-76
2021/11/06 18:01:02;;;;;;;8.80;3.60;;;;;;;8.83;68.18;100635.41;231113;1191;140573;-79
2021/11/06 18:06:08;;;;;;;7.40;3.60;;;;;;;8.86;68.38;100637.10;229610;1191;142205;-73
2021/11/06 18:11:11;;;;;;;5.10;3.10;;;;;;;8.87;68.05;100633.80;230807;1192;139699;-79
2021/11/06 18:16:19;;;;;;;4.70;2.40;;;;;;;8.87;67.83;100633.48;229087;1191;140281;-79
2021/11/06 18:21:22;;;;;;;6.60;3.80;;;;;;;8.88;67.81;100626.93;229563;1191;139657;-77
2021/11/06 18:26:37;;;;;;;4.50;3.30;;;;;;;8.90;67.61;100623.05;230591;1191;140265;-76
2021/11/06 18:31:48;;;;;;;5.20;4.40;;;;;;;8.89;67.61;100626.98;230071;1191;139504;-76
2021/11/06 18:36:55;;;;;;;5.60;3.40;;;;;;;8.86;67.64;100627.15;229707;1191;140558;-78
2021/11/06 18:42:10;;;;;;;6.90;3.50;;;;;;;8.83;67.32;100618.16;230163;1191;140945;-76
2021/11/06 18:47:15;;;;;;;5.60;3.90;;;;;;;8.83;67.18;100613.45;229297;1191;140078;-72
2021/11/06 18:52:28;;;;;;;4.10;2.70;;;;;;;8.82;67.25;100616.11;228822;1191;139111;-76
2021/11/06 18:58:16;;;;;;;5.60;2.80;;;;;;;8.78;67.24;100616.14;229019;1191;138578;-75
2021/11/06 19:03:26;;;;;;;4.80;3.40;;;;;;;8.74;67.35;100610.03;229393;1192;140390;-69
2021/11/06 19:08:54;;;;;;;9.80;4.10;;;;;;;8.70;67.31;100603.27;228471;1192;139109;-75
2021/11/06 19:13:59;;;;;;;4.80;3.70;;;;;;;8.67;67.23;100599.95;228775;1191;139225;-77
2021/11/06 19:19:05;;;;;;;5.50;3.60;;;;;;;8.66;67.18;100599.24;229423;1191;139581;-75
2021/11/06 19:24:12;;;;;;;9.10;5.20;;;;;;;8.69;67.13;100595.13;228997;1191;141159;-74
2021/11/06 19:29:15;;;;;;;8.50;4.30;;;;;;;8.70;67.13;100593.74;229568;1192;140545;-77
2021/11/06 19:34:38;;;;;;;8.20;4.40;;;;;;;8.72;67.08;100592.07;230851;1191;139161;-76
2021/11/06 19:39:41;;;;;;;7.10;3.70;;;;;;;8.73;67.05;100592.89;230176;1191;139549;-73
2021/11/06 19:44:47;;;;;;;8.00;4.10;;;;;;;8.71;66.84;100591.30;229191;1192;140797;-81
2021/11/06 19:49:51;;;;;;;6.60;4.50;;;;;;;8.70;66.69;100581.81;229544;1192;140550;-74
2021/11/06 19:54:55;;;;;;;9.70;4.90;;;;;;;8.67;67.01;100581.67;230242;1192;140373;-79
2021/11/06 19:59:58;;;;;;;10.10;5.30;;;;;;;8.68;66.53;100592.10;230689;1191;140795;-81
2021/11/06 20:05:40;;;;;;;9.70;6.10;;;;;;;8.66;66.79;100591.04;230565;1192;141164;-82
2021/11/06 20:10:45;;;;;;;6.80;5.00;;;;;;;8.64;66.86;100593.15;231146;1191;139390;-80
2021/11/06 20:15:48;;;;;;;10.00;6.40;;;;;;;8.61;66.66;100581.73;230970;1191;139562;-74
2021/11/06 20:20:52;;;;;;;13.00;5.70;;;;;;;8.61;66.56;100578.30;230925;1191;140912;-73
2021/11/06 20:26:37;;;;;;;;;;;;;;;;;;;;;
2021/11/06 20:32:20;;;;;;;;;;;;;;;;;;;;;
2021/11/06 20:37:24;;;;;;;10.00;7.70;;;;;;;8.58;66.65;100566.40;230251;1191;149159;-72
2021/11/06 20:42:28;;;;;;;13.40;7.20;;;;;;;8.54;66.75;100560.44;230632;1191;139909;-75
2021/11/06 20:47:32;;;;;;;13.10;8.70;;;;;;;8.47;66.71;100557.77;229012;1192;139682;-73
2021/11/06 20:52:37;;;;;;;11.00;8.40;;;;;;;8.44;66.53;100552.85;230244;1192;139843;-79
2021/11/06 20:57:48;;;;;;;14.60;8.10;;;;;;;8.43;66.80;100548.39;229036;1191;139526;-74
2021/11/06 21:02:54;;;;;;;12.70;8.30;;;;;;;8.37;66.81;100542.40;229640;1192;140626;-77
2021/11/06 21:08:00;;;;;;;13.80;8.00;;;;;;;8.29;67.14;100539.07;229308;1192;139230;-78
2021/11/06 21:18:18;;;;;;;11.10;6.80;;;;;;;8.19;67.10;100523.94;229735;1191;139589;-74
2021/11/06 21:23:28;;;;;;;12.60;8.70;;;;;;;8.20;67.04;100513.23;228946;1191;140477;-78
2021/11/06 21:28:32;;;;;;;14.30;8.50;;;;;;;8.17;67.12;100512.90;228891;1184;140070;-74
2021/11/06 21:33:40;;;;;;;13.60;9.00;;;;;;;8.11;67.29;100499.23;230381;1192;141030;-78
2021/11/06 21:38:59;;;;;;;11.00;7.90;;;;;;;8.03;67.31;100495.23;229995;1191;141044;-80
2021/11/06 21:44:07;;;;;;;16.40;9.60;;;;;;;7.91;67.18;100491.53;230076;1191;141121;-78
2021/11/06 21:49:12;;;;;;;15.50;9.90;;;;;;;7.76;67.43;100481.63;230545;1192;139305;-78
2021/11/06 21:54:52;;;;;;;16.10;9.60;;;;;;;7.62;67.54;100479.00;229642;1192;139994;-74
2021/11/06 22:00:09;;;;;;;22.40;12.00;;;;;;;7.57;67.48;100482.86;227923;1195;140315;-79
2021/11/06 22:05:14;;;;;;;19.60;12.40;;;;;;;7.51;67.63;100469.84;229045;1195;139581;-77
2021/11/06 22:10:51;;;;;;;12.20;9.10;;;;;;;7.40;67.56;100460.59;228620;1195;140637;-71
2021/11/06 22:15:58;;;;;;;17.30;12.30;;;;;;;7.24;67.99;100452.94;227449;1195;141367;-79
2021/11/06 22:21:05;;;;;;;15.50;10.60;;;;;;;7.12;67.98;100449.70;229820;1195;139702;-78
2021/11/06 22:26:09;;;;;;;16.30;11.40;;;;;;;7.00;68.12;100454.63;229979;1195;139198;-71
2021/11/06 22:31:47;;;;;;;;;;;;;;;;;;;;;
2021/11/06 22:36:51;;;;;;;23.10;12.30;;;;;;;6.91;68.37;100439.31;231161;1191;140764;-72
2021/11/06 22:41:55;;;;;;;16.30;11.50;;;;;;;6.85;68.37;100433.27;229421;1191;140572;-73
2021/11/06 22:46:58;;;;;;;20.10;13.90;;;;;;;6.76;68.72;100428.59;228987;1192;139388;-77
2021/11/06 22:52:09;;;;;;;17.00;11.30;;;;;;;6.65;68.54;100426.81;229560;1192;140349;-79
2021/11/06 22:57:25;;;;;;;18.00;12.60;;;;;;;6.55;68.85;100415.31;229756;1192;140763;-77
2021/11/06 23:02:41;;;;;;;21.20;13.10;;;;;;;6.52;68.92;100413.01;229493;1192;140430;-81
2021/11/06 23:07:45;;;;;;;23.20;13.40;;;;;;;6.46;69.02;100411.13;229736;1192;139420;-79
2021/11/06 23:13:01;;;;;;;21.50;13.20;;;;;;;6.36;68.96;100413.70;229314;1192;139314;-83
2021/11/06 23:18:07;;;;;;;20.00;12.70;;;;;;;6.26;69.64;100414.95;229234;1192;140904;-79
2021/11/06 23:23:32;;;;;;;20.80;13.10;;;;;;;6.12;69.57;100401.14;229332;1193;139108;-80
2021/11/06 23:28:36;;;;;;;19.10;13.10;;;;;;;6.00;69.75;100392.11;229220;1192;139869;-81
2021/11/06 23:34:05;;;;;;;21.20;15.20;;;;;;;5.94;69.86;100388.05;230016;1192;139798;-74
2021/11/06 23:39:08;;;;;;;23.00;15.10;;;;;;;5.90;69.82;100380.39;228430;1192;142142;-78
2021/11/06 23:44:11;;;;;;;20.30;13.10;;;;;;;5.85;70.12;100372.75;229229;1192;140486;-77
2021/11/06 23:49:15;;;;;;;15.70;10.10;;;;;;;5.76;70.19;100363.96;228990;1192;141583;-78
2021/11/06 23:54:34;;;;;;;27.40;14.00;;;;;;;5.66;70.32;100360.44;229444;1192;140411;-75
